createdAt,value
2022-10-11T00:01:47.469Z,19.03
2022-10-11T00:04:14.156Z,17.50
2022-10-11T00:06:43.375Z,15.83
2022-10-11T00:09:14.759Z,17.13
2022-10-11T00:11:42.072Z,15.20
2022-10-11T00:14:08.885Z,13.03
2022-10-11T00:16:35.681Z,10.40
2022-10-11T00:19:02.439Z,12.57
2022-10-11T00:21:30.603Z,14.10
2022-10-11T00:23:57.331Z,15.47
2022-10-11T00:26:24.006Z,13.60
2022-10-11T00:28:52.624Z,14.60
2022-10-11T00:31:19.498Z,11.40
2022-10-11T00:33:46.874Z,13.77
2022-10-11T00:36:16.625Z,15.03
2022-10-11T00:38:44.642Z,9.33
2022-10-11T00:41:12.219Z,10.93
2022-10-11T00:43:38.972Z,13.80
2022-10-11T00:46:17.703Z,16.33
2022-10-11T00:49:13.464Z,12.97
2022-10-11T00:51:52.211Z,12.47
2022-10-11T00:54:23.230Z,12.53
2022-10-11T00:56:56.182Z,14.00
2022-10-11T00:59:29.463Z,12.77
2022-10-11T01:01:56.710Z,12.80
2022-10-11T01:04:23.383Z,11.27
2022-10-11T01:06:51.168Z,11.97
2022-10-11T01:09:18.968Z,18.37
2022-10-11T01:11:47.131Z,15.53
2022-10-11T01:14:38.619Z,16.67
2022-10-11T01:17:25.077Z,15.77
2022-10-11T01:20:12.972Z,16.80
2022-10-11T01:22:57.718Z,14.30
2022-10-11T01:25:48.288Z,13.97
2022-10-11T01:28:49.159Z,14.03
2022-10-11T01:31:32.093Z,11.43
2022-10-11T01:34:32.859Z,16.33
2022-10-11T01:37:16.547Z,15.07
2022-10-11T01:39:51.889Z,16.03
2022-10-11T01:42:20.088Z,15.63
2022-10-11T01:44:49.746Z,13.37
2022-10-11T01:47:23.625Z,18.30
2022-10-11T01:49:58.906Z,16.77
2022-10-11T01:52:29.014Z,15.17
2022-10-11T01:55:28.021Z,15.20
2022-10-11T01:58:16.138Z,15.70
2022-10-11T02:01:05.746Z,14.57
2022-10-11T02:03:59.636Z,13.33
2022-10-11T02:06:57.367Z,19.93
2022-10-11T02:09:49.531Z,15.77
2022-10-11T02:12:37.654Z,13.13
2022-10-11T02:15:18.575Z,17.67
2022-10-11T02:18:00.618Z,15.63
2022-10-11T02:20:41.336Z,17.67
2022-10-11T02:23:29.687Z,14.50
2022-10-11T02:26:11.275Z,18.37
2022-10-11T02:28:53.705Z,17.53
2022-10-11T02:31:36.054Z,16.43
2022-10-11T02:34:23.889Z,17.50
2022-10-11T02:37:21.450Z,21.30
2022-10-11T02:40:08.292Z,19.10
2022-10-11T02:42:53.447Z,14.37
2022-10-11T02:45:44.914Z,20.63
2022-10-11T02:48:24.149Z,18.77
2022-10-11T02:51:04.196Z,16.70
2022-10-11T02:53:41.988Z,16.23
2022-10-11T02:56:20.058Z,17.43
2022-10-11T02:58:58.240Z,18.73
2022-10-11T03:01:36.480Z,22.63
2022-10-11T03:04:15.276Z,17.67
2022-10-11T03:06:52.840Z,16.50
2022-10-11T03:09:31.034Z,17.77
2022-10-11T03:12:09.377Z,25.07
2022-10-11T03:14:48.102Z,22.47
2022-10-11T03:17:41.028Z,21.10
2022-10-11T03:20:18.653Z,17.67
2022-10-11T03:22:56.574Z,15.70
2022-10-11T03:25:34.815Z,17.00
2022-10-11T03:28:12.913Z,15.93
2022-10-11T03:30:51.555Z,17.57
2022-10-11T03:33:33.233Z,16.43
2022-10-11T03:36:11.066Z,20.57
2022-10-11T03:38:48.817Z,17.03
2022-10-11T03:41:26.974Z,22.53
2022-10-11T03:44:05.597Z,13.33
2022-10-11T03:46:43.602Z,14.10
2022-10-11T03:49:22.242Z,13.30
2022-10-11T03:51:59.841Z,12.00
2022-10-11T03:54:38.596Z,9.63
2022-10-11T03:57:16.317Z,6.43
2022-10-11T03:59:54.359Z,8.47
2022-10-11T04:02:36.988Z,10.13
2022-10-11T04:05:17.317Z,6.03
2022-10-11T04:07:55.504Z,6.20
2022-10-11T04:10:33.556Z,6.60
2022-10-11T04:13:12.250Z,6.70
2022-10-11T04:15:50.098Z,4.23
2022-10-11T04:18:28.135Z,5.27
2022-10-11T04:21:06.676Z,8.20
2022-10-11T04:23:44.635Z,4.97
2022-10-11T04:26:22.993Z,6.23
2022-10-11T04:29:00.976Z,6.73
2022-10-11T04:31:39.184Z,4.70
2022-10-11T04:34:18.038Z,6.90
2022-10-11T04:36:55.647Z,7.10
2022-10-11T04:39:34.712Z,5.43
2022-10-11T04:42:12.574Z,8.30
2022-10-11T04:44:50.145Z,4.50
2022-10-11T04:47:28.493Z,5.53
2022-10-11T04:50:06.830Z,5.87
2022-10-11T04:52:44.902Z,5.90
2022-10-11T04:55:22.975Z,6.50
2022-10-11T04:58:02.324Z,4.63
2022-10-11T05:00:39.331Z,5.77
2022-10-11T05:03:17.532Z,15.47
2022-10-11T05:05:56.140Z,5.13
2022-10-11T05:08:34.681Z,8.13
2022-10-11T05:11:15.985Z,4.97
2022-10-11T05:13:53.600Z,7.70
2022-10-11T05:16:32.066Z,6.60
2022-10-11T05:19:10.304Z,6.03
2022-10-11T05:21:48.595Z,7.30
2022-10-11T05:24:26.392Z,6.43
2022-10-11T05:27:04.489Z,8.57
2022-10-11T05:29:42.747Z,13.93
2022-10-11T05:32:21.516Z,11.47
2022-10-11T05:34:59.124Z,7.77
2022-10-11T05:37:37.560Z,8.23
2022-10-11T05:40:15.500Z,5.83
2022-10-11T05:42:52.457Z,8.63
2022-10-11T05:45:32.970Z,6.43
2022-10-11T05:48:10.640Z,5.20
2022-10-11T05:50:48.344Z,5.80
2022-10-11T05:53:26.804Z,19.40
2022-10-11T05:56:05.778Z,7.70
2022-10-11T05:58:44.742Z,11.90
2022-10-11T06:01:26.114Z,5.73
2022-10-11T06:04:05.090Z,6.27
2022-10-11T06:06:42.288Z,6.30
2022-10-11T06:09:21.006Z,6.17
2022-10-11T06:11:58.686Z,5.40
2022-10-11T06:14:50.645Z,8.90
2022-10-11T06:17:53.994Z,7.20
2022-10-11T06:20:49.313Z,6.83
2022-10-11T06:23:42.153Z,5.80
2022-10-11T06:26:37.868Z,7.63
2022-10-11T06:29:41.978Z,7.00
2022-10-11T06:32:37.554Z,5.73
2022-10-11T06:35:41.292Z,10.90
2022-10-11T06:38:37.310Z,12.43
2022-10-11T06:41:32.789Z,6.63
2022-10-11T06:44:27.605Z,7.97
2022-10-11T06:47:19.198Z,7.87
2022-10-11T06:50:15.350Z,8.63
2022-10-11T06:53:11.106Z,12.13
2022-10-11T06:56:21.651Z,6.43
2022-10-11T06:59:18.056Z,7.10
2022-10-11T07:02:10.096Z,3.03
2022-10-11T07:05:01.685Z,11.07
2022-10-11T07:07:56.279Z,9.30
2022-10-11T07:10:52.294Z,9.87
2022-10-11T07:13:51.830Z,16.47
2022-10-11T07:16:46.965Z,11.80
2022-10-11T07:19:42.642Z,17.50
2022-10-11T07:22:35.130Z,12.53
2022-10-11T07:25:25.825Z,10.80
2022-10-11T07:28:16.982Z,15.77
2022-10-11T07:31:17.578Z,7.43
2022-10-11T07:34:09.033Z,14.33
2022-10-11T07:37:00.992Z,13.70
2022-10-11T07:39:51.995Z,23.33
2022-10-11T07:42:43.017Z,11.57
2022-10-11T07:45:38.470Z,12.23
2022-10-11T07:48:39.413Z,11.53
2022-10-11T07:51:33.256Z,7.20
2022-10-11T07:54:28.006Z,10.50
2022-10-11T07:57:36.924Z,12.10
2022-10-11T08:00:44.085Z,10.80
2022-10-11T08:03:48.575Z,12.00
2022-10-11T08:06:53.431Z,12.40
2022-10-11T08:09:54.637Z,9.43
2022-10-11T08:12:49.593Z,5.73
2022-10-11T08:15:50.865Z,12.80
2022-10-11T08:18:51.375Z,9.43
2022-10-11T08:21:46.319Z,10.60
2022-10-11T08:24:49.242Z,9.07
2022-10-11T08:27:40.783Z,9.20
2022-10-11T08:30:34.604Z,6.77
2022-10-11T08:33:26.588Z,9.03
2022-10-11T08:36:22.160Z,11.43
2022-10-11T08:39:17.406Z,10.83
2022-10-11T08:42:40.362Z,15.43
2022-10-11T08:45:39.052Z,11.13
2022-10-11T08:48:37.917Z,12.03
2022-10-11T08:51:41.808Z,11.50
2022-10-11T08:54:51.561Z,8.93
2022-10-11T08:57:48.598Z,9.67
2022-10-11T09:00:41.176Z,9.63
2022-10-11T09:03:38.529Z,17.00
2022-10-11T09:06:52.778Z,15.50
2022-10-11T09:09:55.989Z,19.30
2022-10-11T09:12:58.796Z,14.77
2022-10-11T09:15:52.419Z,15.80
2022-10-11T09:19:09.759Z,10.67
2022-10-11T09:21:52.629Z,9.73
2022-10-11T09:24:52.259Z,14.60
2022-10-11T09:28:01.373Z,20.37
2022-10-11T09:30:23.489Z,11.40
2022-10-11T09:33:08.541Z,7.13
2022-10-11T09:35:42.714Z,13.77
2022-10-11T09:38:38.464Z,10.97
2022-10-11T09:41:46.914Z,14.23
2022-10-11T09:44:22.905Z,13.03
2022-10-11T09:46:50.893Z,10.10
2022-10-11T09:49:20.982Z,8.27
2022-10-11T09:51:53.978Z,14.87
2022-10-11T09:54:27.514Z,7.07
2022-10-11T09:56:54.585Z,17.57
2022-10-11T09:59:30.302Z,10.70
2022-10-11T10:02:22.461Z,7.93
2022-10-11T10:05:10.611Z,6.50
2022-10-11T10:07:40.956Z,7.73
2022-10-11T10:10:34.277Z,7.87
2022-10-11T10:13:04.233Z,8.03
2022-10-11T10:15:34.651Z,14.40
2022-10-11T10:18:03.149Z,9.27
2022-10-11T10:20:35.056Z,6.33
2022-10-11T10:23:21.576Z,9.77
2022-10-11T10:25:52.115Z,10.53
2022-10-11T10:28:25.769Z,8.77
2022-10-11T10:30:59.586Z,8.33
2022-10-11T10:33:30.978Z,14.90
2022-10-11T10:36:07.432Z,6.07
2022-10-11T10:38:40.468Z,7.53
2022-10-11T10:41:12.988Z,7.97
2022-10-11T10:43:41.769Z,10.90
2022-10-11T10:46:11.415Z,4.97
2022-10-11T10:49:23.594Z,10.00
2022-10-11T10:52:03.004Z,5.93
2022-10-11T10:54:55.246Z,8.70
2022-10-11T10:58:07.224Z,10.60
2022-10-11T11:00:44.142Z,12.37
2022-10-11T11:03:35.709Z,8.77
2022-10-11T11:06:07.000Z,5.50
2022-10-11T11:09:02.125Z,5.13
2022-10-11T11:11:41.646Z,7.07
2022-10-11T11:14:33.559Z,8.97
2022-10-11T11:17:20.664Z,5.40
2022-10-11T11:19:59.427Z,6.53
2022-10-11T11:22:32.929Z,4.20
2022-10-11T11:25:05.700Z,12.03
2022-10-11T11:28:01.526Z,6.77
2022-10-11T11:30:37.262Z,7.10
2022-10-11T11:33:28.936Z,7.10
2022-10-11T11:36:01.650Z,8.73
2022-10-11T11:39:03.321Z,11.27
2022-10-11T11:41:50.162Z,22.70
2022-10-11T11:44:25.007Z,13.20
2022-10-11T11:46:57.628Z,22.97
2022-10-11T11:49:48.035Z,8.97
2022-10-11T11:52:28.311Z,8.90
2022-10-11T11:55:06.428Z,9.80
2022-10-11T11:57:34.337Z,25.67
2022-10-11T12:00:15.816Z,18.17
2022-10-11T12:02:50.820Z,23.17
2022-10-11T12:05:22.086Z,11.17
2022-10-11T12:07:54.607Z,9.30
2022-10-11T12:10:28.483Z,7.97
2022-10-11T12:13:22.028Z,5.33
2022-10-11T12:16:00.019Z,9.10
2022-10-11T12:18:28.012Z,7.33
2022-10-11T12:21:26.629Z,5.30
2022-10-11T12:24:33.728Z,5.80
2022-10-11T12:27:41.545Z,6.73
2022-10-11T12:30:48.238Z,8.27
2022-10-11T12:33:25.258Z,9.87
2022-10-11T12:35:54.773Z,8.83
2022-10-11T12:38:39.658Z,11.33
2022-10-11T12:41:09.245Z,8.40
2022-10-11T12:43:51.517Z,8.90
2022-10-11T12:46:31.085Z,6.63
2022-10-11T12:49:26.648Z,7.13
2022-10-11T12:52:17.854Z,7.33
2022-10-11T12:55:07.334Z,6.03
2022-10-11T12:58:08.693Z,11.70
2022-10-11T13:00:50.513Z,10.40
2022-10-11T13:03:22.845Z,9.87
2022-10-11T13:05:53.631Z,6.80
2022-10-11T13:08:35.443Z,4.77
2022-10-11T13:11:05.653Z,6.00
2022-10-11T13:13:43.788Z,7.90
2022-10-11T13:16:20.727Z,8.30
2022-10-11T13:18:49.907Z,4.37
2022-10-11T13:21:36.155Z,5.70
2022-10-11T13:24:12.328Z,6.63
2022-10-11T13:26:39.374Z,7.83
2022-10-11T13:29:18.488Z,12.00
2022-10-11T13:31:47.283Z,8.47
2022-10-11T13:34:16.011Z,13.83
2022-10-11T13:36:43.882Z,10.37
2022-10-11T13:39:31.257Z,7.57
2022-10-11T13:42:00.104Z,17.43
2022-10-11T13:44:27.193Z,10.03
2022-10-11T13:46:54.408Z,8.53
2022-10-11T13:49:53.173Z,11.23
2022-10-11T13:52:22.789Z,6.93
2022-10-11T13:55:14.653Z,8.70
2022-10-11T13:57:44.731Z,8.83
2022-10-11T14:00:14.576Z,6.40
2022-10-11T14:02:51.670Z,9.63
2022-10-11T14:05:25.886Z,9.50
2022-10-11T14:07:53.426Z,7.40
2022-10-11T14:10:23.459Z,9.43
2022-10-11T14:13:06.173Z,7.37
2022-10-11T14:15:37.958Z,12.30
2022-10-11T14:18:41.830Z,5.57
2022-10-11T14:21:20.295Z,8.87
2022-10-11T14:23:55.275Z,11.10
2022-10-11T14:26:24.206Z,10.33
2022-10-11T14:28:57.804Z,36.40
2022-10-11T14:31:28.498Z,34.43
2022-10-11T14:33:55.818Z,34.73
2022-10-11T14:36:23.006Z,40.37
2022-10-11T14:38:50.908Z,43.90
2022-10-11T14:41:18.181Z,37.77
2022-10-11T14:43:44.889Z,41.27
2022-10-11T14:46:24.552Z,29.57
2022-10-11T14:48:55.442Z,15.03
2022-10-11T14:51:29.417Z,10.40
2022-10-11T14:53:56.150Z,13.90
2022-10-11T14:56:23.095Z,12.07
2022-10-11T14:58:50.068Z,8.03
2022-10-11T15:01:17.557Z,12.37
2022-10-11T15:03:44.325Z,16.47
2022-10-11T15:06:18.234Z,6.77
2022-10-11T15:08:45.348Z,18.93
2022-10-11T15:11:14.296Z,12.83
2022-10-11T15:13:41.087Z,9.30
2022-10-11T15:16:08.317Z,14.70
2022-10-11T15:18:35.170Z,12.17
2022-10-11T15:21:01.821Z,9.53
2022-10-11T15:23:28.759Z,10.93
2022-10-11T15:25:55.572Z,7.27
2022-10-11T15:28:31.302Z,10.30
2022-10-11T15:31:00.546Z,9.20
2022-10-11T15:33:27.305Z,7.43
2022-10-11T15:35:54.010Z,12.17
2022-10-11T15:38:23.861Z,7.97
2022-10-11T15:40:51.401Z,11.07
2022-10-11T15:43:24.244Z,7.80
2022-10-11T15:45:51.340Z,10.93
2022-10-11T15:48:19.131Z,11.43
2022-10-11T15:50:52.212Z,143.67
2022-10-11T15:53:25.686Z,181.27
2022-10-11T15:55:54.396Z,86.90
2022-10-11T15:58:26.312Z,78.90
2022-10-11T16:00:56.455Z,151.47
2022-10-11T16:03:25.640Z,24.60
2022-10-11T16:05:53.219Z,8.90
2022-10-11T16:08:20.363Z,8.00
2022-10-11T16:10:47.489Z,5.87
2022-10-11T16:13:16.468Z,6.30
2022-10-11T16:15:44.356Z,8.27
2022-10-11T16:18:14.347Z,7.63
2022-10-11T16:20:43.259Z,5.77
2022-10-11T16:23:10.454Z,6.87
2022-10-11T16:25:38.105Z,9.13
2022-10-11T16:28:07.852Z,10.50
2022-10-11T16:30:38.563Z,6.67
2022-10-11T16:33:05.446Z,8.03
2022-10-11T16:35:32.735Z,3.87
2022-10-11T16:38:01.022Z,5.67
2022-10-11T16:40:29.752Z,6.30
2022-10-11T16:42:56.604Z,5.70
2022-10-11T16:45:23.545Z,8.50
2022-10-11T16:47:50.333Z,6.13
2022-10-11T16:50:17.264Z,7.57
2022-10-11T16:52:44.010Z,6.00
2022-10-11T16:55:11.494Z,6.47
2022-10-11T16:57:38.193Z,80.10
2022-10-11T17:00:07.346Z,28.07
2022-10-11T17:02:35.008Z,106.70
2022-10-11T17:05:02.616Z,39.97
2022-10-11T17:07:31.416Z,41.87
2022-10-11T17:09:59.074Z,51.13
2022-10-11T17:12:25.858Z,22.90
2022-10-11T17:14:53.427Z,19.23
2022-10-11T17:17:21.150Z,9.17
2022-10-11T17:19:50.777Z,7.77
2022-10-11T17:22:19.586Z,11.70
2022-10-11T17:24:46.666Z,11.40
2022-10-11T17:27:15.673Z,7.27
2022-10-11T17:29:42.561Z,10.57
2022-10-11T17:32:09.182Z,8.80
2022-10-11T17:34:36.038Z,6.83
2022-10-11T17:37:03.144Z,6.17
2022-10-11T17:39:30.059Z,7.57
2022-10-11T17:41:57.044Z,7.17
2022-10-11T17:44:23.843Z,10.07
2022-10-11T17:46:50.628Z,8.57
2022-10-11T17:49:17.860Z,5.37
2022-10-11T17:51:45.941Z,13.73
2022-10-11T17:54:12.990Z,9.73
2022-10-11T17:56:41.539Z,17.20
2022-10-11T17:59:15.013Z,11.97
2022-10-11T18:01:41.897Z,11.03
2022-10-11T18:04:16.162Z,10.63
2022-10-11T18:06:45.159Z,11.17
2022-10-11T18:09:13.596Z,17.40
2022-10-11T18:11:40.519Z,16.17
2022-10-11T18:14:07.662Z,14.13
2022-10-11T18:16:35.712Z,13.57
2022-10-11T18:19:06.022Z,14.07
2022-10-11T18:21:34.858Z,11.87
2022-10-11T18:24:05.029Z,19.23
2022-10-11T18:26:31.836Z,10.90
2022-10-11T18:28:58.989Z,9.90
2022-10-11T18:31:29.403Z,11.83
2022-10-11T18:33:56.873Z,19.87
2022-10-11T18:36:26.784Z,19.73
2022-10-11T18:38:56.008Z,28.90
2022-10-11T18:41:24.716Z,18.00
2022-10-11T18:43:54.829Z,16.30
2022-10-11T18:46:23.869Z,15.50
2022-10-11T18:48:53.346Z,9.17
2022-10-11T18:51:23.724Z,11.17
2022-10-11T18:53:51.649Z,8.07
2022-10-11T18:56:21.442Z,7.97
2022-10-11T18:58:50.070Z,12.07
2022-10-11T19:01:21.817Z,6.13
2022-10-11T19:03:53.779Z,7.23
2022-10-11T19:06:23.386Z,7.43
2022-10-11T19:09:10.375Z,12.73
2022-10-11T19:11:38.227Z,7.93
2022-10-11T19:14:11.392Z,7.23
2022-10-11T19:16:41.772Z,12.23
2022-10-11T19:19:10.021Z,11.77
2022-10-11T19:21:37.065Z,10.60
2022-10-11T19:24:04.230Z,10.77
2022-10-11T19:26:33.725Z,6.67
2022-10-11T19:29:12.178Z,10.23
2022-10-11T19:31:48.061Z,11.10
2022-10-11T19:34:15.318Z,10.23
2022-10-11T19:36:43.680Z,10.47
2022-10-11T19:39:13.999Z,9.67
2022-10-11T19:41:41.879Z,15.07
2022-10-11T19:44:08.779Z,13.37
2022-10-11T19:46:51.011Z,23.60
2022-10-11T19:49:22.503Z,23.93
2022-10-11T19:51:50.845Z,16.80
2022-10-11T19:54:18.038Z,16.97
2022-10-11T19:56:44.898Z,14.30
2022-10-11T19:59:12.859Z,15.57
2022-10-11T20:01:40.243Z,14.57
2022-10-11T20:04:12.898Z,12.03
2022-10-11T20:06:49.501Z,10.10
2022-10-11T20:09:29.172Z,12.63
2022-10-11T20:11:56.474Z,10.07
2022-10-11T20:14:23.279Z,11.20
2022-10-11T20:16:50.931Z,13.83
2022-10-11T20:19:17.932Z,14.90
2022-10-11T20:21:45.047Z,14.07
2022-10-11T20:24:12.002Z,26.60
2022-10-11T20:26:39.257Z,17.87
2022-10-11T20:29:06.552Z,29.83
2022-10-11T20:31:34.637Z,20.47
2022-10-11T20:34:04.827Z,13.57
2022-10-11T20:36:32.118Z,11.37
2022-10-11T20:38:59.793Z,9.47
2022-10-11T20:41:28.812Z,10.23
2022-10-11T20:43:56.649Z,14.63
2022-10-11T20:46:25.167Z,14.83
2022-10-11T20:49:01.321Z,8.47
2022-10-11T20:51:30.343Z,13.70
2022-10-11T20:53:58.019Z,17.07
2022-10-11T20:56:25.000Z,19.33
2022-10-11T20:58:52.999Z,42.93
2022-10-11T21:01:23.198Z,28.50
2022-10-11T21:03:50.355Z,42.43
2022-10-11T21:06:17.293Z,22.70
2022-10-11T21:08:44.288Z,17.17
2022-10-11T21:11:11.700Z,12.53
2022-10-11T21:13:38.404Z,14.77
2022-10-11T21:16:07.910Z,14.33
2022-10-11T21:18:34.509Z,12.17
2022-10-11T21:21:11.906Z,12.80
2022-10-11T21:23:39.456Z,7.30
2022-10-11T21:26:14.107Z,11.17
2022-10-11T21:28:41.234Z,8.63
2022-10-11T21:31:10.202Z,9.83
2022-10-11T21:33:37.824Z,6.87
2022-10-11T21:36:06.166Z,7.77
2022-10-11T21:38:33.695Z,5.37
2022-10-11T21:41:07.044Z,10.80
2022-10-11T21:43:35.906Z,6.37
2022-10-11T21:46:10.702Z,5.43
2022-10-11T21:48:37.668Z,7.23
2022-10-11T21:51:04.612Z,10.60
2022-10-11T21:53:31.611Z,7.30
2022-10-11T21:55:59.112Z,12.17
2022-10-11T21:58:26.153Z,11.07
2022-10-11T22:00:53.179Z,5.83
2022-10-11T22:03:20.142Z,8.27
2022-10-11T22:05:47.087Z,10.43
2022-10-11T22:08:14.810Z,6.83
2022-10-11T22:11:00.711Z,8.87
2022-10-11T22:13:29.374Z,11.27
2022-10-11T22:15:56.297Z,7.40
2022-10-11T22:18:25.971Z,10.37
2022-10-11T22:20:52.783Z,9.30
2022-10-11T22:23:19.444Z,6.97
2022-10-11T22:25:46.391Z,11.20
2022-10-11T22:28:13.392Z,6.17
2022-10-11T22:30:40.171Z,7.97
2022-10-11T22:33:07.473Z,6.43
2022-10-11T22:35:37.711Z,6.77
2022-10-11T22:38:06.563Z,8.33
2022-10-11T22:40:33.289Z,10.87
2022-10-11T22:42:59.881Z,7.87
2022-10-11T22:45:26.896Z,6.40
2022-10-11T22:47:53.465Z,9.03
2022-10-11T22:50:20.059Z,6.20
2022-10-11T22:52:47.182Z,6.53
2022-10-11T22:55:18.997Z,8.73
2022-10-11T22:57:47.641Z,9.53
2022-10-11T23:00:14.828Z,10.57
2022-10-11T23:02:41.483Z,11.23
2022-10-11T23:05:08.211Z,7.73
2022-10-11T23:07:35.245Z,8.20
2022-10-11T23:10:02.048Z,6.43
2022-10-11T23:12:30.377Z,7.97
2022-10-11T23:14:56.930Z,14.63
2022-10-11T23:17:23.596Z,19.00
2022-10-11T23:19:50.176Z,15.87
2022-10-11T23:22:16.747Z,12.50
2022-10-11T23:24:43.754Z,10.33
2022-10-11T23:27:10.669Z,8.87
2022-10-11T23:29:40.946Z,7.30
2022-10-11T23:32:08.891Z,10.80
2022-10-11T23:34:35.657Z,11.87
2022-10-11T23:37:03.223Z,17.43
2022-10-11T23:39:31.735Z,17.33
2022-10-11T23:41:58.422Z,15.77
2022-10-11T23:44:25.116Z,18.13
2022-10-11T23:46:52.053Z,16.70
2022-10-11T23:49:18.652Z,5.53
2022-10-11T23:51:45.261Z,7.13
2022-10-11T23:54:11.886Z,10.10
2022-10-11T23:56:38.560Z,7.37
2022-10-11T23:59:05.422Z,5.13
